Time;durP1;ratioP1;P1;durP2;ratioP2;P2;SDS_P1;SDS_P2;PMS_P1;PMS_P2;Temp;Humidity;BMP_temperature;BMP_pressure;BME280_temperature;BME280_humidity;BME280_pressure;Samples;Min_cycle;Max_cycle;Signal;HPM_P1;HPM_P2
2023/02/16 00:02:08;;;;;;;72.45;29.90;;;;;;;-0.17;69.97;95122.97;5101990;28;20028;-74
2023/02/16 00:04:34;;;;;;;66.32;28.58;;;;;;;-0.22;69.88;95128.88;5103101;28;20031;-74
2023/02/16 00:06:59;;;;;;;61.20;28.65;;;;;;;-0.22;70.01;95134.13;5103060;28;20329;-74
2023/02/16 00:09:25;;;;;;;70.38;28.58;;;;;;;-0.25;69.96;95126.66;5101772;28;20028;-74
2023/02/16 00:14:37;;;;;;;65.82;29.40;;;;;;;-0.32;70.36;95128.56;5102826;28;20023;-74
2023/02/16 00:17:04;;;;;;;63.45;28.48;;;;;;;-0.31;70.07;95124.91;5103016;28;20027;-74
2023/02/16 00:19:32;;;;;;;69.32;29.45;;;;;;;-0.30;70.34;95131.75;5102894;28;20032;-73
2023/02/16 00:21:59;;;;;;;63.53;29.45;;;;;;;-0.30;70.16;95123.09;5102731;28;20024;-73
2023/02/16 00:24:26;;;;;;;66.03;29.88;;;;;;;-0.36;70.18;95122.13;5102768;28;20137;-73
2023/02/16 00:26:52;;;;;;;66.80;29.98;;;;;;;-0.36;70.49;95118.72;5102811;28;20020;-73
2023/02/16 00:29:33;;;;;;;64.50;28.48;;;;;;;-0.37;70.52;95114.47;5102805;28;20125;-73
2023/02/16 00:32:02;;;;;;;60.60;27.10;;;;;;;-0.38;70.30;95118.94;5102745;28;20028;-73
2023/02/16 00:34:31;;;;;;;69.38;28.33;;;;;;;-0.38;70.54;95118.94;5102475;28;20031;-73
2023/02/16 00:36:59;;;;;;;58.33;27.00;;;;;;;-0.41;70.33;95116.72;5102674;28;20091;-73
2023/02/16 00:39:26;;;;;;;66.03;29.15;;;;;;;-0.45;70.53;95121.59;5102598;28;20051;-73
2023/02/16 00:41:54;;;;;;;75.43;28.35;;;;;;;-0.44;70.56;95120.56;5102583;28;20027;-73
2023/02/16 00:44:26;;;;;;;67.68;28.92;;;;;;;-0.48;70.80;95115.97;5102554;28;20020;-73
2023/02/16 00:46:51;;;;;;;60.85;25.38;;;;;;;-0.50;70.51;95128.50;5102619;28;20054;-73
2023/02/16 00:49:20;;;;;;;59.20;25.58;;;;;;;-0.51;70.57;95114.59;5104795;28;20028;-76
2023/02/16 00:51:45;;;;;;;54.83;24.50;;;;;;;-0.52;70.73;95117.41;5106513;28;20337;-74
2023/02/16 00:54:12;;;;;;;62.15;25.73;;;;;;;-0.51;70.53;95121.63;5106230;28;20020;-74
2023/02/16 00:56:38;;;;;;;53.85;24.40;;;;;;;-0.50;70.44;95112.78;5106293;28;20655;-73
2023/02/16 00:59:10;;;;;;;48.13;22.25;;;;;;;-0.51;70.72;95119.84;5106220;28;20046;-73
2023/02/16 01:01:35;;;;;;;57.95;24.63;;;;;;;-0.50;70.61;95118.81;5106343;28;20027;-74
2023/02/16 01:04:03;;;;;;;53.75;22.50;;;;;;;-0.50;70.51;95115.38;5106168;28;20020;-73
2023/02/16 01:12:01;;;;;;;49.10;19.75;;;;;;;-0.56;70.14;95109.19;5106142;28;20281;-73
2023/02/16 01:14:28;;;;;;;45.25;18.67;;;;;;;-0.58;70.08;95110.41;5105813;28;20024;-74
2023/02/16 01:16:53;;;;;;;41.40;16.63;;;;;;;-0.57;70.14;95104.16;5105988;28;20061;-73
2023/02/16 01:19:19;;;;;;;41.65;16.73;;;;;;;-0.58;69.70;95107.78;5105942;28;20023;-73
2023/02/16 01:21:44;;;;;;;41.25;18.83;;;;;;;-0.61;69.73;95106.41;5105792;28;20020;-74
2023/02/16 01:24:10;;;;;;;43.85;19.38;;;;;;;-0.61;70.06;95101.97;5105757;28;20024;-74
2023/02/16 01:26:41;;;;;;;42.90;17.38;;;;;;;-0.63;69.93;95098.75;5105805;28;20038;-74
2023/02/16 01:29:12;;;;;;;43.17;19.38;;;;;;;-0.64;69.67;95094.53;5105709;28;20019;-73
2023/02/16 01:31:37;;;;;;;39.03;18.60;;;;;;;-0.67;70.09;95092.34;5105553;28;20313;-73
2023/02/16 01:34:02;;;;;;;40.13;18.20;;;;;;;-0.66;69.78;95080.03;5105615;28;20028;-73
2023/02/16 01:36:35;;;;;;;41.33;17.88;;;;;;;-0.68;69.60;95079.47;5105352;28;20047;-73
2023/02/16 01:39:01;;;;;;;45.85;17.65;;;;;;;-0.73;69.98;95089.75;5105609;28;20196;-74
2023/02/16 01:41:45;;;;;;;44.00;18.45;;;;;;;-0.74;70.15;95083.72;5105525;28;20069;-73
2023/02/16 01:44:16;;;;;;;43.67;17.52;;;;;;;-0.76;70.17;95083.13;5105567;28;20040;-73
2023/02/16 01:47:06;;;;;;;41.92;18.38;;;;;;;-0.78;70.40;95090.38;5105251;28;20044;-73
2023/02/16 01:49:31;;;;;;;50.58;20.60;;;;;;;-0.79;70.17;95075.72;5105232;28;20020;-73
2023/02/16 01:52:22;;;;;;;41.05;17.00;;;;;;;-0.79;70.30;95075.72;5105328;28;20048;-73
2023/02/16 01:54:52;;;;;;;51.92;19.60;;;;;;;-0.78;70.14;95076.50;5105086;28;20062;-73
2023/02/16 01:57:36;;;;;;;55.80;21.17;;;;;;;-0.84;70.17;95078.16;5105275;28;21375;-73
2023/02/16 02:00:07;;;;;;;53.38;21.63;;;;;;;-0.89;70.22;95068.31;5104691;28;20218;-73
2023/02/16 02:02:39;;;;;;;52.90;22.55;;;;;;;-0.88;70.29;95071.72;5104982;28;20030;-73
2023/02/16 02:08:01;;;;;;;52.05;20.90;;;;;;;-0.89;70.58;95072.75;5104984;28;20223;-73
2023/02/16 02:10:49;;;;;;;51.83;20.77;;;;;;;-0.88;70.69;95077.75;5104956;28;20222;-73
2023/02/16 02:13:41;;;;;;;46.13;19.58;;;;;;;-0.90;70.70;95076.38;5084550;28;20028;-73
2023/02/16 02:16:08;;;;;;;44.10;19.20;;;;;;;-0.89;70.86;95070.16;5103632;28;20051;-73
2023/02/16 02:18:34;;;;;;;45.67;20.50;;;;;;;-0.90;70.83;95071.94;5104900;28;20260;-73
2023/02/16 02:24:39;;;;;;;53.47;22.42;;;;;;;-0.99;70.76;95075.84;5101036;28;20027;-74
2023/02/16 02:27:19;;;;;;;48.60;20.83;;;;;;;-0.95;71.02;95078.84;5104138;28;20051;-74
2023/02/16 02:29:53;;;;;;;54.30;23.67;;;;;;;-0.97;71.04;95070.41;5104690;28;20036;-74
2023/02/16 02:32:40;;;;;;;52.55;23.50;;;;;;;-0.99;71.05;95075.03;5104299;28;20028;-74
2023/02/16 02:35:48;;;;;;;54.08;22.75;;;;;;;-1.01;71.20;95062.94;5104438;28;20035;-74
2023/02/16 02:38:47;;;;;;;50.20;20.27;;;;;;;-0.98;71.21;95066.16;5084905;28;20077;-74
2023/02/16 02:42:03;;;;;;;50.80;20.08;;;;;;;-1.01;71.11;95057.72;5090653;28;20036;-74
2023/02/16 02:44:36;;;;;;;45.00;18.80;;;;;;;-1.02;70.95;95063.97;5104029;28;20103;-74
2023/02/16 02:47:02;;;;;;;46.42;20.23;;;;;;;-1.01;71.31;95062.16;5104205;28;20047;-74
2023/02/16 02:49:27;;;;;;;58.72;19.73;;;;;;;-1.00;71.04;95063.75;5104034;28;20099;-74
2023/02/16 02:51:53;;;;;;;47.67;19.83;;;;;;;-1.01;71.17;95062.94;5104103;28;20020;-74
2023/02/16 03:00:42;;;;;;;41.70;18.55;;;;;;;-1.02;70.89;95071.84;5104113;28;20229;-74
2023/02/16 03:03:11;;;;;;;47.42;19.00;;;;;;;-1.00;71.06;95074.22;5103818;28;20275;-74
2023/02/16 03:05:39;;;;;;;37.28;17.13;;;;;;;-0.99;70.98;95072.44;5103821;28;20016;-75
2023/02/16 03:08:15;;;;;;;42.17;18.00;;;;;;;-0.99;71.16;95073.22;5103974;28;20020;-75
2023/02/16 03:13:46;;;;;;;36.67;17.10;;;;;;;-0.97;71.00;95073.00;5103708;28;20097;-75
2023/02/16 03:30:34;;;;;;;33.20;16.52;;;;;;;-0.98;71.34;95061.72;5103479;28;20349;-75
2023/02/16 03:33:00;;;;;;;32.85;15.90;;;;;;;-0.97;71.46;95057.31;5103287;28;20087;-75
2023/02/16 03:35:25;;;;;;;30.65;14.98;;;;;;;-0.96;71.29;95066.75;5103349;28;20210;-75
2023/02/16 03:37:51;;;;;;;34.80;14.98;;;;;;;-0.99;70.87;95059.34;5103381;28;20024;-74
2023/02/16 03:40:28;;;;;;;32.65;14.38;;;;;;;-1.01;70.81;95056.94;5103485;28;20024;-75
2023/02/16 03:43:05;;;;;;;38.78;16.45;;;;;;;-1.05;70.83;95059.16;5103198;28;20061;-73
2023/02/16 03:45:36;;;;;;;47.35;17.73;;;;;;;-1.07;70.79;95055.94;5103286;28;20040;-73
2023/02/16 03:48:02;;;;;;;46.42;19.85;;;;;;;-1.06;70.79;95067.22;5103298;28;20032;-73
2023/02/16 03:50:28;;;;;;;42.33;18.17;;;;;;;-1.06;70.90;95065.41;5103119;28;20030;-73
2023/02/16 03:53:05;;;;;;;46.03;17.70;;;;;;;-1.04;70.98;95066.00;5103053;28;20023;-74
2023/02/16 03:55:51;;;;;;;36.10;16.13;;;;;;;-1.07;70.84;95065.63;5102934;28;20043;-73
2023/02/16 03:58:20;;;;;;;37.35;17.58;;;;;;;-1.07;71.10;95063.00;5102883;28;20336;-73
2023/02/16 04:00:46;;;;;;;34.90;16.60;;;;;;;-1.08;71.25;95059.59;5103159;28;20023;-74
2023/02/16 04:03:12;;;;;;;34.35;15.73;;;;;;;-1.08;71.29;95062.22;5102998;28;20023;-74
2023/02/16 04:05:37;;;;;;;33.67;15.70;;;;;;;-1.10;71.08;95061.63;5102977;28;20065;-74
2023/02/16 04:08:04;;;;;;;34.28;14.93;;;;;;;-1.11;71.01;95052.16;5102975;28;20337;-74
2023/02/16 04:10:29;;;;;;;32.83;14.73;;;;;;;-1.11;70.84;95057.38;5102899;28;20374;-74
2023/02/16 04:12:54;;;;;;;29.08;14.60;;;;;;;-1.11;70.44;95051.34;5102983;28;20066;-74
2023/02/16 04:15:23;;;;;;;35.95;16.00;;;;;;;-1.12;70.56;95052.34;5102962;28;20058;-74
2023/02/16 04:17:49;;;;;;;33.97;16.13;;;;;;;-1.13;70.54;95042.91;5102966;28;20213;-74
2023/02/16 04:20:18;;;;;;;35.08;16.17;;;;;;;-1.15;70.70;95050.97;5103192;28;20032;-74
2023/02/16 04:22:44;;;;;;;38.20;16.30;;;;;;;-1.16;70.85;95040.69;5104054;28;20314;-75
2023/02/16 04:25:10;;;;;;;36.78;16.00;;;;;;;-1.20;70.66;95042.97;5106942;28;20016;-74
2023/02/16 04:27:36;;;;;;;43.67;18.17;;;;;;;-1.21;70.83;95036.09;5106982;28;20088;-74
2023/02/16 04:30:04;;;;;;;43.45;19.58;;;;;;;-1.23;70.91;95044.16;5106825;28;20020;-74
2023/02/16 04:32:29;;;;;;;45.42;18.70;;;;;;;-1.22;70.88;95035.31;5106725;28;20026;-75
2023/02/16 04:34:54;;;;;;;51.60;20.58;;;;;;;-1.25;71.19;95050.63;5106578;28;20043;-75
2023/02/16 04:37:20;;;;;;;40.08;18.88;;;;;;;-1.25;71.25;95043.56;5106866;28;20095;-74
2023/02/16 04:39:46;;;;;;;50.88;23.10;;;;;;;-1.25;71.19;95040.94;5106934;28;20024;-74
2023/02/16 04:42:11;;;;;;;49.45;20.83;;;;;;;-1.26;71.31;95052.44;5106518;28;20314;-74
2023/02/16 04:44:36;;;;;;;47.10;21.25;;;;;;;-1.26;71.40;95051.66;5106547;28;20032;-74
2023/02/16 04:47:02;;;;;;;42.90;18.95;;;;;;;-1.26;71.55;95060.28;5106396;28;20048;-74
2023/02/16 04:49:27;;;;;;;43.28;20.05;;;;;;;-1.29;71.53;95049.44;5106368;28;20023;-74
2023/02/16 04:51:53;;;;;;;41.85;18.90;;;;;;;-1.29;71.47;95054.66;5106562;28;20306;-74
2023/02/16 04:54:18;;;;;;;49.13;21.40;;;;;;;-1.31;71.50;95056.69;5106455;28;20028;-74
2023/02/16 04:56:45;;;;;;;48.15;21.08;;;;;;;-1.30;72.14;95066.16;5106462;28;20099;-74
2023/02/16 04:59:12;;;;;;;47.10;21.27;;;;;;;-1.33;72.14;95059.50;5106274;28;20095;-74
2023/02/16 05:01:37;;;;;;;51.97;23.00;;;;;;;-1.34;72.12;95068.38;5106263;28;20186;-74
2023/02/16 05:04:03;;;;;;;51.30;22.75;;;;;;;-1.35;72.76;95060.75;5105083;28;20188;-74
2023/02/16 05:06:28;;;;;;;47.80;21.65;;;;;;;-1.35;73.02;95073.81;5106155;28;20087;-74
2023/02/16 05:08:53;;;;;;;50.83;23.63;;;;;;;-1.35;72.96;95060.75;5106192;28;20023;-74
2023/02/16 05:16:47;;;;;;;48.38;21.42;;;;;;;-1.38;72.30;95071.59;5105814;28;20226;-71
2023/02/16 05:19:13;;;;;;;50.15;23.17;;;;;;;-1.39;72.18;95067.41;5106019;28;20107;-71
2023/02/16 05:21:38;;;;;;;63.22;24.42;;;;;;;-1.41;71.93;95063.16;5104773;28;20016;-72
2023/02/16 05:24:06;;;;;;;59.85;25.70;;;;;;;-1.42;71.96;95076.47;5105729;28;20061;-71
2023/02/16 05:26:33;;;;;;;63.10;27.33;;;;;;;-1.45;71.97;95071.63;5105904;28;20023;-72
2023/02/16 05:28:59;;;;;;;76.10;30.77;;;;;;;-1.47;71.66;95074.44;5105725;28;20218;-72
2023/02/16 05:31:26;;;;;;;68.93;29.85;;;;;;;-1.47;71.79;95071.84;5105557;28;20095;-72
2023/02/16 05:33:52;;;;;;;62.47;28.65;;;;;;;-1.45;71.92;95076.88;5104782;28;20054;-71
2023/02/16 05:36:18;;;;;;;60.60;27.45;;;;;;;-1.47;71.84;95084.91;5105225;28;20310;-72
2023/02/16 05:38:43;;;;;;;67.22;27.45;;;;;;;-1.47;71.99;95087.53;5105612;28;20027;-74
2023/02/16 05:41:09;;;;;;;66.03;28.33;;;;;;;-1.54;71.85;95084.16;5105419;28;20065;-73
2023/02/16 05:43:34;;;;;;;62.63;27.45;;;;;;;-1.49;72.15;95081.69;5105211;28;20248;-73
2023/02/16 05:46:05;;;;;;;62.85;25.77;;;;;;;-1.45;72.01;95082.09;5105177;28;20040;-74
2023/02/16 05:48:30;;;;;;;58.05;26.80;;;;;;;-1.44;72.17;95094.19;5105191;28;20039;-73
2023/02/16 05:50:56;;;;;;;55.22;25.00;;;;;;;-1.44;72.52;95089.75;5105210;28;20306;-73
2023/02/16 05:53:21;;;;;;;66.78;26.88;;;;;;;-1.39;72.36;95088.31;5105337;28;20064;-74
2023/02/16 05:55:47;;;;;;;55.42;25.50;;;;;;;-1.37;72.35;95084.47;5105278;28;20306;-74
2023/02/16 05:58:13;;;;;;;60.38;27.10;;;;;;;-1.34;72.41;95088.47;5105228;28;20241;-73
2023/02/16 06:00:38;;;;;;;65.07;27.92;;;;;;;-1.33;72.50;95090.09;5105137;28;20069;-73
2023/02/16 06:03:03;;;;;;;64.07;28.65;;;;;;;-1.31;72.69;95090.69;5105066;28;20024;-74
2023/02/16 06:05:29;;;;;;;67.82;29.90;;;;;;;-1.28;72.85;95100.75;5105127;28;20079;-74
2023/02/16 06:07:54;;;;;;;67.32;30.55;;;;;;;-1.29;73.60;95099.13;5104953;28;20066;-74
2023/02/16 06:10:20;;;;;;;59.35;28.10;;;;;;;-1.25;73.75;95095.88;5104944;28;20272;-74
2023/02/16 06:12:45;;;;;;;64.40;30.80;;;;;;;-1.30;74.27;95095.72;5105076;28;20363;-74
2023/02/16 06:15:10;;;;;;;68.20;30.08;;;;;;;-1.24;74.32;95109.78;5104557;28;20020;-74
2023/02/16 06:17:36;;;;;;;59.83;27.35;;;;;;;-1.26;74.08;95103.97;5104766;28;20024;-73
2023/02/16 06:20:03;;;;;;;66.53;29.15;;;;;;;-1.28;73.66;95113.84;5104530;28;20215;-73
2023/02/16 06:22:28;;;;;;;54.88;25.08;;;;;;;-1.26;73.49;95120.47;5104724;28;20322;-73
2023/02/16 06:24:53;;;;;;;57.10;27.45;;;;;;;-1.28;73.71;95113.84;5104712;28;20022;-73
2023/02/16 06:27:19;;;;;;;72.70;34.00;;;;;;;-1.26;73.60;95123.06;5104446;28;20127;-73
2023/02/16 06:29:44;;;;;;;70.45;33.10;;;;;;;-1.22;73.53;95118.22;5104621;28;20064;-73
2023/02/16 06:32:10;;;;;;;73.10;32.35;;;;;;;-1.14;73.68;95127.63;5104521;28;20024;-73
2023/02/16 06:34:35;;;;;;;76.07;35.45;;;;;;;-1.09;73.95;95119.97;5104371;28;20286;-73
2023/02/16 06:37:00;;;;;;;82.65;35.25;;;;;;;-1.02;73.54;95118.94;5104301;28;20042;-73
2023/02/16 06:39:26;;;;;;;86.03;35.92;;;;;;;-0.99;73.71;95128.19;5104522;28;20218;-72
2023/02/16 06:41:51;;;;;;;71.93;32.70;;;;;;;-0.91;73.61;95132.38;5104171;28;20039;-72
2023/02/16 06:44:17;;;;;;;77.97;36.63;;;;;;;-0.87;73.78;95128.31;5104254;28;20318;-72
2023/02/16 06:46:45;;;;;;;75.05;35.58;;;;;;;-0.79;73.73;95138.53;5104044;28;20050;-72
2023/02/16 06:49:13;;;;;;;81.80;36.70;;;;;;;-0.70;73.56;95136.47;5104055;28;20092;-72
2023/02/16 06:51:38;;;;;;;73.53;34.95;;;;;;;-0.63;73.29;95127.56;5104103;28;20027;-72
2023/02/16 06:54:04;;;;;;;67.07;30.50;;;;;;;-0.51;73.11;95130.31;5103939;28;20019;-74
2023/02/16 06:56:29;;;;;;;63.47;30.75;;;;;;;-0.43;72.69;95137.09;5103903;28;20023;-72
2023/02/16 06:58:54;;;;;;;78.18;34.72;;;;;;;-0.32;72.67;95133.00;5103965;28;20054;-72
2023/02/16 07:01:24;;;;;;;83.95;37.10;;;;;;;-0.25;72.21;95124.03;5103753;28;20020;-72
2023/02/16 07:03:51;;;;;;;79.35;37.08;;;;;;;-0.19;72.21;95132.06;5103893;28;20305;-72
2023/02/16 07:06:17;;;;;;;74.07;34.55;;;;;;;-0.10;71.76;95131.59;5103792;28;20020;-73
2023/02/16 07:08:42;;;;;;;83.68;35.97;;;;;;;-0.08;71.70;95126.13;5103632;28;20024;-73
2023/02/16 07:11:07;;;;;;;71.38;34.33;;;;;;;-0.07;71.62;95127.75;5103311;28;20207;-72
2023/02/16 07:13:35;;;;;;;71.13;32.88;;;;;;;-0.01;71.91;95119.81;5103511;28;20031;-73
2023/02/16 07:16:04;;;;;;;80.10;34.67;;;;;;;0.07;71.71;95116.13;5103277;28;20024;-72
2023/02/16 07:18:30;;;;;;;82.75;36.97;;;;;;;0.17;71.60;95115.63;5103600;28;20055;-71
2023/02/16 07:20:55;;;;;;;76.80;35.33;;;;;;;0.25;71.64;95114.56;5103491;28;20091;-71
2023/02/16 07:23:21;;;;;;;68.45;32.53;;;;;;;0.35;71.21;95106.97;5103494;28;20249;-71
2023/02/16 07:25:46;;;;;;;75.57;35.35;;;;;;;0.46;70.84;95106.22;5103695;28;20024;-71
2023/02/16 07:28:12;;;;;;;81.78;36.55;;;;;;;0.54;71.11;95100.69;5103647;28;20027;-71
2023/02/16 07:30:38;;;;;;;80.40;36.85;;;;;;;0.64;71.11;95096.75;5103268;28;20226;-77
2023/02/16 07:33:05;;;;;;;76.72;35.22;;;;;;;0.74;70.77;95099.66;5103397;28;20026;-73
2023/02/16 07:35:31;;;;;;;70.35;34.10;;;;;;;0.84;70.84;95094.69;5103275;28;20036;-81
2023/02/16 07:37:56;;;;;;;71.20;33.80;;;;;;;0.94;70.87;95102.03;5103407;28;20020;-78
2023/02/16 07:40:22;;;;;;;77.40;35.15;;;;;;;1.03;70.94;95102.53;5102058;28;20025;-79
2023/02/16 07:42:47;;;;;;;66.60;33.25;;;;;;;1.11;70.55;95092.50;5101350;28;20024;-79
2023/02/16 07:45:12;;;;;;;69.95;32.10;;;;;;;1.17;70.21;95096.88;5102149;28;20051;-76
2023/02/16 07:47:38;;;;;;;77.65;35.00;;;;;;;1.21;70.39;95094.59;5102790;28;20032;-77
2023/02/16 07:50:04;;;;;;;66.57;32.80;;;;;;;1.29;70.20;95098.75;5103089;28;20039;-77
2023/02/16 07:52:30;;;;;;;70.25;33.38;;;;;;;1.35;69.86;95098.63;5102627;28;20028;-77
2023/02/16 07:54:58;;;;;;;71.55;33.97;;;;;;;1.38;69.17;95106.09;5102919;28;20222;-79
2023/02/16 07:57:24;;;;;;;78.75;34.45;;;;;;;1.38;68.78;95106.09;5102650;28;20046;-77
2023/02/16 07:59:51;;;;;;;84.55;35.20;;;;;;;1.43;68.91;95104.59;5103098;28;20023;-78
2023/02/16 08:02:18;;;;;;;75.65;35.20;;;;;;;1.48;68.74;95109.97;5103401;28;20304;-78
2023/02/16 08:04:44;;;;;;;81.90;38.40;;;;;;;1.52;67.88;95116.38;5103379;28;20225;-77
2023/02/16 08:07:14;;;;;;;81.50;38.53;;;;;;;1.52;67.83;95106.66;5103118;28;20024;-77
2023/02/16 08:09:40;;;;;;;94.70;40.58;;;;;;;1.58;67.73;95111.03;5102931;28;20091;-77
2023/02/16 08:12:10;;;;;;;95.50;42.78;;;;;;;1.60;68.13;95108.97;5102881;28;20325;-77
2023/02/16 08:14:36;;;;;;;100.97;43.85;;;;;;;1.69;68.24;95106.00;5102786;28;20109;-77
2023/02/16 08:17:02;;;;;;;96.63;43.60;;;;;;;1.79;67.91;95120.22;5103018;28;20020;-78
2023/02/16 08:19:28;;;;;;;98.40;45.03;;;;;;;1.88;67.69;95114.63;5103017;28;20034;-77
2023/02/16 08:21:54;;;;;;;89.63;44.13;;;;;;;1.98;67.81;95125.38;5102885;28;20024;-76
2023/02/16 08:24:20;;;;;;;86.20;42.53;;;;;;;2.07;67.41;95118.72;5102864;28;20057;-77
2023/02/16 08:26:48;;;;;;;88.78;43.75;;;;;;;2.17;67.23;95118.97;5103016;28;20322;-76
2023/02/16 08:29:16;;;;;;;89.75;42.42;;;;;;;2.30;66.63;95117.94;5103098;28;20032;-75
2023/02/16 08:31:45;;;;;;;82.70;40.40;;;;;;;2.41;66.31;95118.97;5102884;28;20020;-76
2023/02/16 08:34:12;;;;;;;87.65;39.17;;;;;;;2.42;66.06;95125.81;5102900;28;20024;-78
2023/02/16 08:36:39;;;;;;;75.70;36.28;;;;;;;2.57;66.05;95125.34;5102812;28;20032;-79
2023/02/16 08:39:15;;;;;;;69.88;34.33;;;;;;;2.71;65.82;95118.00;5102724;28;20074;-78
2023/02/16 08:41:42;;;;;;;68.93;34.58;;;;;;;2.85;64.86;95116.72;5102444;28;20024;-78
2023/02/16 08:44:08;;;;;;;71.00;35.92;;;;;;;2.96;64.24;95117.69;5102647;28;20322;-79
2023/02/16 08:46:38;;;;;;;83.35;36.72;;;;;;;3.07;63.77;95116.06;5102653;28;20047;-78
2023/02/16 08:49:06;;;;;;;69.38;34.47;;;;;;;3.15;64.10;95113.84;5102781;28;20203;-78
2023/02/16 08:51:33;;;;;;;71.50;31.65;;;;;;;3.23;63.58;95110.03;5102719;28;20207;-77
2023/02/16 08:53:59;;;;;;;71.90;31.95;;;;;;;3.32;63.51;95116.53;5101585;28;20012;-78
2023/02/16 08:56:26;;;;;;;58.15;28.38;;;;;;;3.43;63.23;95117.50;5102605;28;20058;-78
2023/02/16 08:58:51;;;;;;;64.32;27.58;;;;;;;3.55;62.78;95118.25;5102801;28;20028;-78
2023/02/16 09:01:17;;;;;;;67.28;30.95;;;;;;;3.65;62.51;95114.19;5102763;28;20310;-78
2023/02/16 09:03:44;;;;;;;65.40;31.90;;;;;;;3.70;61.73;95103.72;5102868;28;20030;-84
2023/02/16 09:06:12;;;;;;;74.25;34.90;;;;;;;3.74;61.29;95100.34;5102730;28;20047;-82
2023/02/16 09:08:39;;;;;;;84.00;39.45;;;;;;;3.81;61.39;95111.56;5102564;28;20055;-83
2023/02/16 09:11:08;;;;;;;69.60;34.92;;;;;;;3.88;61.38;95105.31;5105756;28;20027;-86
2023/02/16 09:13:34;;;;;;;81.15;34.33;;;;;;;4.00;60.80;95108.66;5106149;28;20020;-81
2023/02/16 09:16:05;;;;;;;70.68;33.72;;;;;;;4.12;61.15;95101.47;5106390;28;20047;-83
2023/02/16 09:18:31;;;;;;;77.38;35.55;;;;;;;4.21;60.13;95105.31;5106302;28;20222;-80
2023/02/16 09:21:01;;;;;;;74.07;34.92;;;;;;;4.31;60.33;95103.84;5105892;28;20042;-82
2023/02/16 09:23:27;;;;;;;81.32;36.55;;;;;;;4.40;60.42;95105.03;5105941;28;20034;-83
2023/02/16 09:25:52;;;;;;;75.40;35.55;;;;;;;4.51;59.66;95092.75;5106960;28;20036;-83
2023/02/16 09:28:19;;;;;;;80.18;35.75;;;;;;;4.60;59.78;95096.59;5106691;28;20031;-83
2023/02/16 09:30:44;;;;;;;76.25;35.03;;;;;;;4.69;59.01;95096.97;5106121;28;20040;-82
2023/02/16 09:33:10;;;;;;;65.82;33.00;;;;;;;4.77;58.46;95084.09;5106030;28;20264;-82
2023/02/16 09:35:38;;;;;;;71.43;33.47;;;;;;;4.84;58.73;95091.84;5105709;28;20040;-82
2023/02/16 09:38:03;;;;;;;71.07;32.60;;;;;;;4.91;58.50;95087.19;5105966;28;20027;-82
2023/02/16 09:40:29;;;;;;;69.07;33.88;;;;;;;4.99;58.08;95083.31;5106464;28;20020;-83
2023/02/16 09:43:03;;;;;;;67.50;31.67;;;;;;;5.08;58.04;95088.94;5106177;28;20020;-84
2023/02/16 09:45:34;;;;;;;65.15;32.72;;;;;;;5.15;57.90;95092.19;5110362;28;20043;-83
2023/02/16 09:48:00;;;;;;;65.40;31.23;;;;;;;5.22;57.35;95087.50;5105632;28;20040;-80
2023/02/16 09:50:28;;;;;;;61.10;32.22;;;;;;;5.27;57.03;95087.56;5105222;28;20024;-78
2023/02/16 09:52:59;;;;;;;64.30;31.98;;;;;;;5.34;56.56;95085.50;5105406;28;20091;-78
2023/02/16 09:55:50;;;;;;;63.40;31.13;;;;;;;5.38;55.81;95083.97;5105245;28;20062;-76
2023/02/16 09:58:22;;;;;;;64.22;32.00;;;;;;;5.38;56.63;95068.09;5084182;28;20035;-77
2023/02/16 10:00:53;;;;;;;62.60;30.35;;;;;;;5.46;56.59;95068.72;5105089;28;20031;-76
2023/02/16 10:03:22;;;;;;;75.93;34.10;;;;;;;5.57;56.01;95065.09;5105172;28;20023;-76
2023/02/16 10:06:23;;;;;;;73.32;30.40;;;;;;;5.66;55.98;95070.72;5105024;28;20024;-74
2023/02/16 10:08:54;;;;;;;67.90;31.10;;;;;;;5.70;55.45;95062.03;5105077;28;20031;-73
2023/02/16 10:11:40;;;;;;;71.20;33.55;;;;;;;5.68;55.24;95060.69;5104833;28;20353;-78
2023/02/16 10:14:29;;;;;;;66.68;32.28;;;;;;;5.80;55.33;95059.47;5105051;28;20179;-78
2023/02/16 10:17:00;;;;;;;73.82;32.60;;;;;;;5.91;55.10;95051.59;5104857;28;20036;-77
2023/02/16 10:19:34;;;;;;;70.90;32.83;;;;;;;6.02;54.36;95048.00;5103654;28;20224;-80
2023/02/16 10:22:04;;;;;;;65.35;32.83;;;;;;;5.97;54.07;95040.03;5104454;28;20027;-80
2023/02/16 10:24:40;;;;;;;64.20;33.58;;;;;;;5.99;54.05;95048.53;5104911;28;20027;-79
2023/02/16 10:27:13;;;;;;;76.00;31.85;;;;;;;6.03;54.13;95039.03;5104430;28;20306;-76
2023/02/16 10:29:39;;;;;;;66.05;31.85;;;;;;;6.14;54.33;95031.94;5104744;28;20024;-78
2023/02/16 10:32:10;;;;;;;61.75;32.08;;;;;;;6.27;54.45;95038.59;5103498;28;20035;-77
2023/02/16 10:34:49;;;;;;;64.93;31.83;;;;;;;6.35;54.32;95038.13;5104667;28;20094;-78
2023/02/16 10:37:21;;;;;;;68.45;31.55;;;;;;;6.47;53.76;95028.13;5104679;28;20338;-79
2023/02/16 10:40:28;;;;;;;82.90;35.30;;;;;;;6.56;53.50;95031.88;5104613;28;20039;-79
2023/02/16 10:43:06;;;;;;;87.20;34.30;;;;;;;6.68;52.40;95029.03;5098596;28;20035;-77
2023/02/16 10:45:43;;;;;;;65.43;34.17;;;;;;;6.75;51.74;95023.47;5104331;28;20122;-78
2023/02/16 10:48:09;;;;;;;59.53;32.13;;;;;;;6.70;51.72;95026.13;5104372;28;20054;-76
2023/02/16 10:50:41;;;;;;;66.28;32.40;;;;;;;6.77;51.08;95026.66;5104061;28;20020;-79
2023/02/16 10:53:18;;;;;;;61.88;32.60;;;;;;;6.75;50.99;95023.47;5104188;28;20065;-77
2023/02/16 10:55:44;;;;;;;63.97;32.33;;;;;;;6.75;51.04;95015.53;5104046;28;20028;-77
2023/02/16 10:58:18;;;;;;;65.75;32.28;;;;;;;6.77;51.06;95013.41;5103893;28;20023;-77
2023/02/16 11:00:54;;;;;;;70.93;32.85;;;;;;;6.82;51.16;95011.56;5103780;28;20030;-77
2023/02/16 11:03:24;;;;;;;67.15;32.90;;;;;;;6.89;51.23;95010.53;5103780;28;20024;-78
2023/02/16 11:05:50;;;;;;;66.97;32.42;;;;;;;7.03;51.46;95008.97;5103618;28;20025;-78
2023/02/16 11:08:16;;;;;;;64.55;30.50;;;;;;;7.17;51.18;94996.00;5103954;28;20024;-78
2023/02/16 11:10:41;;;;;;;75.28;34.28;;;;;;;7.34;50.76;94988.59;5103694;28;20034;-79
2023/02/16 11:13:27;;;;;;;66.15;31.00;;;;;;;7.54;50.41;94992.31;5103738;28;20031;-76
2023/02/16 11:15:56;;;;;;;67.75;31.63;;;;;;;7.66;49.68;94978.78;5103536;28;20073;-77
2023/02/16 11:18:32;;;;;;;70.03;32.92;;;;;;;7.72;49.25;94981.16;5103642;28;20322;-77
2023/02/16 11:20:58;;;;;;;70.35;31.65;;;;;;;7.88;49.42;94981.16;5103589;28;20024;-79
2023/02/16 11:23:23;;;;;;;67.47;29.88;;;;;;;8.00;48.80;94985.09;5103408;28;20031;-78
2023/02/16 11:26:08;;;;;;;72.60;31.02;;;;;;;8.12;48.73;94976.03;5103499;28;20020;-78
2023/02/16 11:28:38;;;;;;;60.97;30.75;;;;;;;8.25;47.60;94980.78;5103573;28;20027;-78
2023/02/16 11:31:16;;;;;;;68.28;31.50;;;;;;;8.35;46.76;94982.63;5103487;28;20032;-79
2023/02/16 11:33:54;;;;;;;65.10;32.53;;;;;;;8.32;47.06;94980.50;5102515;28;20028;-77
2023/02/16 11:36:27;;;;;;;60.95;29.88;;;;;;;8.43;47.90;94974.91;5102694;28;20080;-79
2023/02/16 11:39:13;;;;;;;64.32;31.90;;;;;;;8.63;47.17;94965.28;5103021;28;20091;-79
2023/02/16 11:41:44;;;;;;;68.40;30.95;;;;;;;8.81;46.51;94971.81;5103119;28;20024;-79
2023/02/16 11:44:33;;;;;;;69.07;31.25;;;;;;;8.84;45.33;94961.44;5103159;28;20061;-78
2023/02/16 11:47:01;;;;;;;56.00;28.98;;;;;;;8.87;45.39;94969.91;5103081;28;20046;-78
2023/02/16 11:49:37;;;;;;;65.32;30.00;;;;;;;8.87;45.31;94965.38;5103293;28;20031;-78
2023/02/16 11:52:28;;;;;;;57.47;30.33;;;;;;;8.97;45.67;94961.88;5103090;28;20051;-77
2023/02/16 11:54:59;;;;;;;59.20;30.40;;;;;;;9.14;45.98;94961.50;5102997;28;20214;-79
2023/02/16 11:57:27;;;;;;;59.88;29.80;;;;;;;9.31;45.33;94959.25;5103023;28;20046;-78
2023/02/16 11:59:54;;;;;;;69.95;30.40;;;;;;;9.47;44.60;94945.84;5103118;28;20028;-77
2023/02/16 12:02:41;;;;;;;53.40;29.13;;;;;;;9.68;45.86;94946.47;5103005;28;20024;-75
2023/02/16 12:05:18;;;;;;;57.63;29.08;;;;;;;9.88;44.45;94940.94;5103059;28;20028;-76
2023/02/16 12:07:55;;;;;;;66.95;31.30;;;;;;;10.06;43.97;94935.97;5103136;28;20023;-76
2023/02/16 12:10:37;;;;;;;65.53;30.58;;;;;;;10.21;42.02;94938.47;5102932;28;20059;-75
2023/02/16 12:13:08;;;;;;;61.58;30.52;;;;;;;10.23;41.96;94931.75;5102917;28;20027;-75
2023/02/16 12:15:46;;;;;;;66.97;29.65;;;;;;;10.36;42.23;94932.19;5101670;28;20307;-76